Time;durP1;ratioP1;P1;durP2;ratioP2;P2;SDS_P1;SDS_P2;PMS_P1;PMS_P2;Temp;Humidity;BMP_temperature;BMP_pressure;BME280_temperature;BME280_humidity;BME280_pressure;Samples;Min_cycle;Max_cycle;Signal;HPM_P1;HPM_P2
2022/09/28 00:01:57;;;;;;;;;;;16.90;97.40;;;;;;5060358;28;19908;-65
2022/09/28 00:04:22;;;;;;;;;;;16.90;97.40;;;;;;5061497;28;19919;-65
2022/09/28 00:06:48;;;;;;;;;;;16.90;97.40;;;;;;5061415;28;19909;-65
2022/09/28 00:09:14;;;;;;;;;;;16.90;97.40;;;;;;5061657;28;20060;-65
2022/09/28 00:11:42;;;;;;;;;;;16.90;97.40;;;;;;5061491;28;19958;-65
2022/09/28 00:14:08;;;;;;;;;;;16.90;97.40;;;;;;5062095;28;19919;-65
2022/09/28 00:16:35;;;;;;;;;;;16.90;97.40;;;;;;5062037;28;19955;-65
2022/09/28 00:19:01;;;;;;;;;;;16.90;97.40;;;;;;5064629;28;19908;-65
2022/09/28 00:21:28;;;;;;;;;;;16.90;97.40;;;;;;5064510;28;19923;-65
2022/09/28 00:26:40;;;;;;;;;;;16.90;97.40;;;;;;5077614;28;19912;-65
2022/09/28 00:29:15;;;;;;;;;;;16.90;97.30;;;;;;5061364;28;19912;-65
2022/09/28 00:31:41;;;;;;;;;;;16.90;97.30;;;;;;5078805;28;19908;-65
2022/09/28 00:34:06;;;;;;;;;;;16.80;97.30;;;;;;5061303;28;19920;-65
2022/09/28 00:36:32;;;;;;;;;;;16.80;97.30;;;;;;5061543;28;19909;-65
2022/09/28 00:38:58;;;;;;;;;;;16.80;97.30;;;;;;5061799;28;19999;-65
2022/09/28 00:41:25;;;;;;;;;;;16.80;97.30;;;;;;5061341;28;19908;-65
2022/09/28 00:44:13;;;;;;;;;;;16.80;97.30;;;;;;5061789;28;20002;-65
2022/09/28 00:46:40;;;;;;;;;;;16.80;97.30;;;;;;5060702;28;19947;-65
2022/09/28 00:49:10;;;;;;;;;;;16.80;97.30;;;;;;5061657;28;20699;-65
2022/09/28 00:51:36;;;;;;;;;;;16.80;97.30;;;;;;5061146;28;19916;-65
2022/09/28 00:54:02;;;;;;;;;;;16.80;97.30;;;;;;5071582;22;19925;-85
2022/09/28 00:56:33;;;;;;;;;;;16.80;97.30;;;;;;5075750;28;20209;-85
2022/09/28 00:58:58;;;;;;;;;;;16.80;97.30;;;;;;5055960;28;19908;-85
2022/09/28 01:01:25;;;;;;;;;;;16.80;97.30;;;;;;5057938;28;20168;-87
2022/09/28 01:03:51;;;;;;;;;;;16.80;97.40;;;;;;5055427;28;19912;-88
2022/09/28 01:06:26;;;;;;;;;;;16.80;97.30;;;;;;5058448;28;20062;-88
2022/09/28 01:08:57;;;;;;;;;;;16.80;97.30;;;;;;5057534;28;19913;-89
2022/09/28 01:11:23;;;;;;;;;;;16.80;97.40;;;;;;5056532;28;19912;-89
2022/09/28 01:13:49;;;;;;;;;;;16.80;97.40;;;;;;5055582;28;19939;-89
2022/09/28 01:16:18;;;;;;;;;;;16.80;97.40;;;;;;5057899;28;19919;-89
2022/09/28 01:19:02;;;;;;;;;;;16.80;97.40;;;;;;5058225;28;19908;-89
2022/09/28 01:21:31;;;;;;;;;;;16.80;97.70;;;;;;5073785;28;19960;-89
2022/09/28 01:24:11;;;;;;;;;;;16.80;97.40;;;;;;5056920;28;19958;-89
2022/09/28 01:26:55;;;;;;;;;;;16.80;97.40;;;;;;5055855;28;19962;-89
2022/09/28 01:29:24;;;;;;;;;;;16.80;97.40;;;;;;5055679;28;19935;-89
2022/09/28 01:31:58;;;;;;;;;;;16.80;97.40;;;;;;5055513;28;19962;-89
2022/09/28 01:34:26;;;;;;;;;;;16.80;97.40;;;;;;5070272;22;20027;-64
2022/09/28 01:36:53;;;;;;;;;;;16.80;97.40;;;;;;5050526;28;19942;-64
2022/09/28 01:39:24;;;;;;;;;;;16.80;97.40;;;;;;5051226;28;19955;-64
2022/09/28 01:41:52;;;;;;;;;;;16.80;97.30;;;;;;5050727;28;20015;-64
2022/09/28 01:44:19;;;;;;;;;;;16.80;97.30;;;;;;5052507;28;20248;-64
2022/09/28 01:46:47;;;;;;;;;;;16.80;97.30;;;;;;5051442;28;20115;-64
2022/09/28 01:49:15;;;;;;;;;;;16.80;97.30;;;;;;5050642;28;19913;-64
2022/09/28 01:51:45;;;;;;;;;;;16.70;97.30;;;;;;5051565;28;19915;-64
2022/09/28 01:54:20;;;;;;;;;;;16.80;97.30;;;;;;5052477;28;20290;-64
2022/09/28 01:57:04;;;;;;;;;;;16.80;97.20;;;;;;5055570;28;19919;-64
2022/09/28 01:59:32;;;;;;;;;;;16.80;97.20;;;;;;5055573;28;19909;-64
2022/09/28 02:01:59;;;;;;;;;;;16.80;97.20;;;;;;5057223;28;19995;-64
2022/09/28 02:04:24;;;;;;;;;;;16.80;97.20;;;;;;5057309;28;19909;-64
2022/09/28 02:07:01;;;;;;;;;;;16.80;97.20;;;;;;5058872;28;20158;-64
2022/09/28 02:09:32;;;;;;;;;;;16.80;97.20;;;;;;5058055;28;19966;-64
2022/09/28 02:12:00;;;;;;;;;;;16.80;97.20;;;;;;5058421;28;19908;-64
2022/09/28 02:14:27;;;;;;;;;;;16.80;97.20;;;;;;5057903;28;19916;-64
2022/09/28 02:16:56;;;;;;;;;;;16.80;97.10;;;;;;5057273;28;20190;-64
2022/09/28 02:19:24;;;;;;;;;;;16.80;97.20;;;;;;5056989;28;19909;-64
2022/09/28 02:21:50;;;;;;;;;;;16.80;97.20;;;;;;5058189;28;19919;-64
2022/09/28 02:24:36;;;;;;;;;;;16.80;97.20;;;;;;5056767;28;20142;-64
2022/09/28 02:27:25;;;;;;;;;;;16.80;97.20;;;;;;5056820;28;20343;-64
2022/09/28 02:29:53;;;;;;;;;;;16.80;97.20;;;;;;5041363;28;19962;-64
2022/09/28 02:32:25;;;;;;;;;;;16.80;97.10;;;;;;5057561;28;19908;-64
2022/09/28 02:34:51;;;;;;;;;;;16.80;97.10;;;;;;5056966;28;19995;-64
2022/09/28 02:37:16;;;;;;;;;;;16.80;97.10;;;;;;5056186;28;20008;-64
2022/09/28 02:39:42;;;;;;;;;;;16.80;97.10;;;;;;5057548;28;19918;-64
2022/09/28 02:42:07;;;;;;;;;;;16.80;97.10;;;;;;5058104;28;19955;-64
2022/09/28 02:44:49;;;;;;;;;;;16.80;97.10;;;;;;5055818;28;20269;-64
2022/09/28 02:47:23;;;;;;;;;;;16.70;97.10;;;;;;5056784;28;19909;-64
2022/09/28 02:49:54;;;;;;;;;;;16.70;97.10;;;;;;5056591;28;19912;-64
2022/09/28 02:52:39;;;;;;;;;;;16.70;97.10;;;;;;5055560;28;19908;-64
2022/09/28 02:55:11;;;;;;;;;;;16.80;97.10;;;;;;5060107;28;19915;-64
2022/09/28 02:57:55;;;;;;;;;;;16.70;97.10;;;;;;5058516;28;19913;-64
2022/09/28 03:00:21;;;;;;;;;;;16.70;97.10;;;;;;5058524;28;19916;-64
2022/09/28 03:02:54;;;;;;;;;;;16.70;97.10;;;;;;5058145;28;19919;-64
2022/09/28 03:05:39;;;;;;;;;;;16.70;97.00;;;;;;5058768;28;19917;-64
2022/09/28 03:08:14;;;;;;;;;;;16.70;97.10;;;;;;5058608;28;19908;-64
2022/09/28 03:10:47;;;;;;;;;;;16.70;97.10;;;;;;5059884;28;19912;-64
2022/09/28 03:13:13;;;;;;;;;;;16.70;97.10;;;;;;5061215;28;20298;-64
2022/09/28 03:15:40;;;;;;;;;;;16.70;97.10;;;;;;5061485;28;19912;-64
2022/09/28 03:18:06;;;;;;;;;;;16.70;97.10;;;;;;5061261;28;20368;-64
2022/09/28 03:20:32;;;;;;;;;;;16.70;97.00;;;;;;5061344;28;20012;-64
2022/09/28 03:22:59;;;;;;;;;;;16.70;97.00;;;;;;5061225;28;20161;-64
2022/09/28 03:25:28;;;;;;;;;;;16.70;97.00;;;;;;5058733;28;19908;-64
2022/09/28 03:27:56;;;;;;;;;;;16.70;97.00;;;;;;5059887;28;19912;-64
2022/09/28 03:30:22;;;;;;;;;;;16.70;97.00;;;;;;5059528;28;20014;-64
2022/09/28 03:32:55;;;;;;;;;;;16.70;97.00;;;;;;5059632;28;19999;-64
2022/09/28 03:35:24;;;;;;;;;;;16.70;97.00;;;;;;5058548;28;20339;-64
2022/09/28 03:37:52;;;;;;;;;;;16.70;97.00;;;;;;5063282;28;19908;-64
2022/09/28 03:40:18;;;;;;;;;;;16.70;97.00;;;;;;5071907;28;19913;-63
2022/09/28 03:42:43;;;;;;;;;;;16.70;97.00;;;;;;5058929;28;19909;-64
2022/09/28 03:45:09;;;;;;;;;;;16.70;97.00;;;;;;5057621;28;19909;-65
2022/09/28 03:47:38;;;;;;;;;;;16.70;97.00;;;;;;5055631;28;20262;-64
2022/09/28 03:50:06;;;;;;;;;;;16.70;97.00;;;;;;5057686;28;19916;-64
2022/09/28 03:52:35;;;;;;;;;;;16.70;97.00;;;;;;5058030;28;19962;-64
2022/09/28 03:55:01;;;;;;;;;;;16.70;97.00;;;;;;5058307;28;19908;-64
2022/09/28 03:57:30;;;;;;;;;;;16.70;97.00;;;;;;5057374;28;19908;-64
2022/09/28 03:59:55;;;;;;;;;;;16.70;97.00;;;;;;5059417;28;19908;-64
2022/09/28 04:02:21;;;;;;;;;;;16.70;97.00;;;;;;5059003;28;19918;-64
2022/09/28 04:04:46;;;;;;;;;;;16.70;97.00;;;;;;5057589;28;19946;-64
2022/09/28 04:07:15;;;;;;;;;;;16.70;97.00;;;;;;5058259;28;19999;-64
2022/09/28 04:09:40;;;;;;;;;;;16.70;97.00;;;;;;5058951;28;20274;-64
2022/09/28 04:12:06;;;;;;;;;;;16.70;97.00;;;;;;5057764;28;19955;-65
2022/09/28 04:14:34;;;;;;;;;;;16.70;97.00;;;;;;5058202;28;19909;-65
2022/09/28 04:17:00;;;;;;;;;;;16.70;97.00;;;;;;5055919;28;20038;-65
2022/09/28 04:19:26;;;;;;;;;;;16.60;96.90;;;;;;5056310;28;20572;-65
2022/09/28 04:21:51;;;;;;;;;;;16.60;96.90;;;;;;5056451;28;20317;-65
2022/09/28 04:24:19;;;;;;;;;;;16.70;96.90;;;;;;5053951;28;20089;-65
2022/09/28 04:26:44;;;;;;;;;;;16.70;96.90;;;;;;5055789;28;19912;-65
2022/09/28 04:29:16;;;;;;;;;;;16.60;96.90;;;;;;5054440;28;19912;-65
2022/09/28 04:31:46;;;;;;;;;;;16.60;96.90;;;;;;5055080;28;19914;-65
2022/09/28 04:34:13;;;;;;;;;;;16.60;96.90;;;;;;5055761;28;19917;-65
2022/09/28 04:36:39;;;;;;;;;;;16.60;96.90;;;;;;5055845;28;19916;-63
2022/09/28 04:39:11;;;;;;;;;;;16.60;96.90;;;;;;5056621;28;19916;-65
2022/09/28 04:41:37;;;;;;;;;;;16.60;96.90;;;;;;5056800;28;19913;-65
2022/09/28 04:44:03;;;;;;;;;;;16.60;96.90;;;;;;5056046;28;19919;-65
2022/09/28 04:46:31;;;;;;;;;;;16.60;96.90;;;;;;5054933;28;20054;-65
2022/09/28 04:48:57;;;;;;;;;;;16.60;97.00;;;;;;5055582;28;20093;-65
2022/09/28 04:51:23;;;;;;;;;;;16.60;97.00;;;;;;5057177;28;19908;-65
2022/09/28 04:53:48;;;;;;;;;;;16.60;97.00;;;;;;5057250;28;19908;-65
2022/09/28 04:56:14;;;;;;;;;;;16.60;97.00;;;;;;5056874;28;19912;-65
2022/09/28 04:58:43;;;;;;;;;;;16.60;97.10;;;;;;5056311;28;20183;-65
2022/09/28 05:01:17;;;;;;;;;;;16.60;97.10;;;;;;5052980;28;19939;-65
2022/09/28 05:03:43;;;;;;;;;;;16.60;97.10;;;;;;5054933;28;19908;-65
2022/09/28 05:06:11;;;;;;;;;;;16.60;97.10;;;;;;5054194;28;19915;-65
2022/09/28 05:08:37;;;;;;;;;;;16.60;97.10;;;;;;5054116;28;19924;-66
2022/09/28 05:11:03;;;;;;;;;;;16.60;97.10;;;;;;5052823;28;20278;-65
2022/09/28 05:13:29;;;;;;;;;;;16.60;97.10;;;;;;5051986;28;19985;-65
2022/09/28 05:15:56;;;;;;;;;;;16.60;97.10;;;;;;5052035;28;19908;-65
2022/09/28 05:18:22;;;;;;;;;;;16.60;97.10;;;;;;5055157;28;19909;-65
2022/09/28 05:20:48;;;;;;;;;;;16.60;97.10;;;;;;5055823;28;19915;-66
2022/09/28 05:23:14;;;;;;;;;;;16.60;97.20;;;;;;5052364;28;19912;-65
2022/09/28 05:25:44;;;;;;;;;;;16.60;97.20;;;;;;5052209;28;19909;-65
2022/09/28 05:28:13;;;;;;;;;;;16.60;97.20;;;;;;5051976;28;20205;-65
2022/09/28 05:30:38;;;;;;;;;;;16.60;97.30;;;;;;5052794;28;19988;-65
2022/09/28 05:33:04;;;;;;;;;;;16.60;97.30;;;;;;5053280;28;19939;-65
2022/09/28 05:35:29;;;;;;;;;;;16.60;97.40;;;;;;5051884;28;19913;-65
2022/09/28 05:37:58;;;;;;;;;;;16.60;97.60;;;;;;5052379;28;19909;-65
2022/09/28 05:40:24;;;;;;;;;;;16.60;97.40;;;;;;5050143;28;20222;-65
2022/09/28 05:42:49;;;;;;;;;;;16.60;97.40;;;;;;5049918;28;20210;-66
2022/09/28 05:45:15;;;;;;;;;;;16.60;97.50;;;;;;5050236;28;20167;-66
2022/09/28 05:47:41;;;;;;;;;;;16.60;97.50;;;;;;5049386;28;19908;-66
2022/09/28 05:50:08;;;;;;;;;;;16.60;97.50;;;;;;5046964;28;19943;-65
2022/09/28 05:52:33;;;;;;;;;;;16.60;97.50;;;;;;5048400;28;20175;-65
2022/09/28 05:55:02;;;;;;;;;;;16.60;97.50;;;;;;5048703;28;19962;-65
2022/09/28 05:57:30;;;;;;;;;;;16.60;97.50;;;;;;5049108;28;19932;-66
2022/09/28 05:59:56;;;;;;;;;;;16.60;97.50;;;;;;5050554;28;19965;-66
2022/09/28 06:02:22;;;;;;;;;;;16.70;97.50;;;;;;5051412;28;20014;-66
2022/09/28 06:04:49;;;;;;;;;;;16.70;97.50;;;;;;5050160;28;20163;-66
2022/09/28 06:07:16;;;;;;;;;;;16.70;97.50;;;;;;5049528;28;19915;-66
2022/09/28 06:09:42;;;;;;;;;;;16.70;97.50;;;;;;5050241;28;19973;-66
2022/09/28 06:12:08;;;;;;;;;;;16.70;97.50;;;;;;5050546;28;19920;-66
2022/09/28 06:14:33;;;;;;;;;;;16.70;97.50;;;;;;5051654;28;19916;-66
2022/09/28 06:16:59;;;;;;;;;;;16.70;97.50;;;;;;5051910;28;20266;-66
2022/09/28 06:19:25;;;;;;;;;;;16.70;97.70;;;;;;5050450;28;19944;-66
2022/09/28 06:21:50;;;;;;;;;;;16.70;97.50;;;;;;5049726;28;19998;-66
2022/09/28 06:24:16;;;;;;;;;;;16.70;97.50;;;;;;5051669;28;20019;-66
2022/09/28 06:26:41;;;;;;;;;;;16.70;97.50;;;;;;5050796;28;19909;-66
2022/09/28 06:29:07;;;;;;;;;;;16.70;97.50;;;;;;5049600;28;20151;-66
2022/09/28 06:31:35;;;;;;;;;;;16.70;97.60;;;;;;5051131;28;19920;-66
2022/09/28 06:34:04;;;;;;;;;;;16.70;97.60;;;;;;5052538;28;20151;-66
2022/09/28 06:36:32;;;;;;;;;;;16.70;97.60;;;;;;5052825;28;19924;-66
2022/09/28 06:38:58;;;;;;;;;;;16.70;97.70;;;;;;5049396;28;20277;-65
2022/09/28 06:41:24;;;;;;;;;;;16.70;97.70;;;;;;5053009;28;19919;-65
2022/09/28 06:43:51;;;;;;;;;;;16.70;97.70;;;;;;5051631;28;19943;-65
2022/09/28 06:46:16;;;;;;;;;;;16.70;97.80;;;;;;5050627;28;19948;-65
2022/09/28 06:48:43;;;;;;;;;;;16.70;97.80;;;;;;5049468;28;19951;-66
2022/09/28 06:51:08;;;;;;;;;;;16.70;97.80;;;;;;5049789;28;20266;-66
2022/09/28 06:53:34;;;;;;;;;;;16.70;97.80;;;;;;5048424;28;19916;-66
2022/09/28 06:56:01;;;;;;;;;;;16.70;97.90;;;;;;5050043;28;20469;-66
2022/09/28 06:58:31;;;;;;;;;;;16.70;97.90;;;;;;5050515;28;19908;-66
2022/09/28 07:00:59;;;;;;;;;;;16.70;97.80;;;;;;5051402;28;20228;-65
2022/09/28 07:03:25;;;;;;;;;;;16.70;97.90;;;;;;5050930;28;19951;-64
2022/09/28 07:05:54;;;;;;;;;;;16.70;97.80;;;;;;5052658;28;20197;-65
2022/09/28 07:08:24;;;;;;;;;;;16.70;97.90;;;;;;5050138;28;20191;-65
2022/09/28 07:10:56;;;;;;;;;;;16.70;97.90;;;;;;5051570;28;19970;-65
2022/09/28 07:13:23;;;;;;;;;;;16.70;97.80;;;;;;5051545;28;19908;-65
2022/09/28 07:16:00;;;;;;;;;;;16.70;97.80;;;;;;5052150;28;19909;-65
2022/09/28 07:18:27;;;;;;;;;;;16.70;97.80;;;;;;5052161;28;19909;-65
2022/09/28 07:20:56;;;;;;;;;;;16.70;97.80;;;;;;5050785;28;20340;-65
2022/09/28 07:23:22;;;;;;;;;;;16.70;97.90;;;;;;5050985;28;19916;-65
2022/09/28 07:25:49;;;;;;;;;;;16.70;97.90;;;;;;5051468;28;19970;-65
2022/09/28 07:28:19;;;;;;;;;;;16.70;97.90;;;;;;5049861;28;19917;-65
2022/09/28 07:30:45;;;;;;;;;;;16.70;97.90;;;;;;5050563;28;19920;-65
2022/09/28 07:33:13;;;;;;;;;;;16.70;97.90;;;;;;5050681;28;20335;-65
2022/09/28 07:35:40;;;;;;;;;;;16.70;97.90;;;;;;5051933;28;20119;-66
2022/09/28 07:38:06;;;;;;;;;;;16.70;97.90;;;;;;5068080;28;19908;-64
2022/09/28 07:43:19;;;;;;;;;;;16.70;97.80;;;;;;5070057;28;20302;-66
2022/09/28 07:45:46;;;;;;;;;;;16.70;97.80;;;;;;5051963;28;19908;-66
2022/09/28 07:48:14;;;;;;;;;;;16.70;97.80;;;;;;5053651;28;20392;-65
2022/09/28 07:50:52;;;;;;;;;;;16.70;97.70;;;;;;5051262;28;20080;-66
2022/09/28 07:53:19;;;;;;;;;;;16.70;97.70;;;;;;5036702;28;20161;-66
2022/09/28 07:55:51;;;;;;;;;;;16.70;97.70;;;;;;5030645;28;19913;-65
2022/09/28 07:58:18;;;;;;;;;;;16.70;97.70;;;;;;5030908;28;20011;-65
2022/09/28 08:00:46;;;;;;;;;;;16.70;97.60;;;;;;5030811;28;20049;-65
2022/09/28 08:03:11;;;;;;;;;;;16.70;97.60;;;;;;5048519;28;19909;-66
2022/09/28 08:05:37;;;;;;;;;;;16.70;97.60;;;;;;5032609;28;19913;-65
2022/09/28 08:08:03;;;;;;;;;;;16.70;97.50;;;;;;5031709;28;20022;-66
2022/09/28 08:10:29;;;;;;;;;;;16.80;97.50;;;;;;5032872;28;19978;-65
2022/09/28 08:12:55;;;;;;;;;;;16.70;97.50;;;;;;5034484;28;20133;-66
2022/09/28 08:15:21;;;;;;;;;;;16.80;97.50;;;;;;5033794;28;19909;-66
2022/09/28 08:17:50;;;;;;;;;;;16.80;97.50;;;;;;5032878;28;19909;-66
2022/09/28 08:23:04;;;;;;;;;;;16.80;97.40;;;;;;5048654;28;19932;-66
2022/09/28 08:25:36;;;;;;;;;;;16.80;97.40;;;;;;5030867;28;19946;-66
2022/09/28 08:28:06;;;;;;;;;;;16.80;97.40;;;;;;5031704;28;19948;-66
2022/09/28 08:30:32;;;;;;;;;;;16.80;97.40;;;;;;5029758;28;19912;-66
2022/09/28 08:32:58;;;;;;;;;;;16.80;97.40;;;;;;5032416;28;19971;-66
2022/09/28 08:35:26;;;;;;;;;;;16.80;97.30;;;;;;5032987;28;19913;-66
2022/09/28 08:37:53;;;;;;;;;;;16.90;97.20;;;;;;5032743;28;19919;-66
2022/09/28 08:40:25;;;;;;;;;;;16.90;97.10;;;;;;5035888;28;20037;-66
2022/09/28 08:42:53;;;;;;;;;;;16.90;97.00;;;;;;5032311;28;19947;-66
2022/09/28 08:45:26;;;;;;;;;;;16.90;97.00;;;;;;5032591;28;20362;-66
2022/09/28 08:51:05;;;;;;;;;;;16.90;96.90;;;;;;5048961;28;19920;-64
2022/09/28 08:53:37;;;;;;;;;;;16.90;97.00;;;;;;5030486;28;19935;-66
2022/09/28 08:56:07;;;;;;;;;;;16.90;96.90;;;;;;5032718;28;20003;-66
2022/09/28 08:58:36;;;;;;;;;;;17.00;96.90;;;;;;5032558;28;20008;-66
2022/09/28 09:01:05;;;;;;;;;;;17.00;96.80;;;;;;5032389;28;19936;-66
2022/09/28 09:03:32;;;;;;;;;;;17.00;97.00;;;;;;5033178;28;19908;-66
2022/09/28 09:06:04;;;;;;;;;;;17.00;96.70;;;;;;5035510;28;20202;-66
2022/09/28 09:08:48;;;;;;;;;;;17.10;96.70;;;;;;5043391;28;19920;-65
2022/09/28 09:11:27;;;;;;;;;;;17.10;96.60;;;;;;5032966;28;19952;-66
2022/09/28 09:14:08;;;;;;;;;;;17.10;96.60;;;;;;5035113;28;20251;-65
2022/09/28 09:16:40;;;;;;;;;;;17.10;96.70;;;;;;5033489;28;19909;-66
2022/09/28 09:19:16;;;;;;;;;;;17.10;96.70;;;;;;5032141;28;19913;-66
2022/09/28 09:21:41;;;;;;;;;;;17.10;96.70;;;;;;5030609;28;19919;-66
2022/09/28 09:24:17;;;;;;;;;;;17.10;96.70;;;;;;5032732;28;19909;-66
2022/09/28 09:26:43;;;;;;;;;;;17.10;96.60;;;;;;5031834;28;19909;-65
2022/09/28 09:29:26;;;;;;;;;;;17.10;96.60;;;;;;5031516;28;19999;-65
2022/09/28 09:31:51;;;;;;;;;;;17.10;96.60;;;;;;5031067;28;19920;-66
2022/09/28 09:34:23;;;;;;;;;;;17.10;96.60;;;;;;5031389;28;19909;-65
2022/09/28 09:37:00;;;;;;;;;;;17.10;96.60;;;;;;5031776;28;19917;-66
2022/09/28 09:39:32;;;;;;;;;;;17.10;96.60;;;;;;5031355;28;19909;-66
2022/09/28 09:41:58;;;;;;;;;;;17.20;96.50;;;;;;5031753;28;19963;-65
2022/09/28 09:44:32;;;;;;;;;;;17.30;96.30;;;;;;5031830;28;19916;-69
2022/09/28 09:46:57;;;;;;;;;;;17.30;96.20;;;;;;5030784;28;20092;-65
2022/09/28 09:49:26;;;;;;;;;;;17.40;96.10;;;;;;5028184;28;19924;-65
2022/09/28 09:51:57;;;;;;;;;;;17.40;96.00;;;;;;5028496;28;19970;-65
2022/09/28 09:54:27;;;;;;;;;;;17.40;95.90;;;;;;5028791;28;20021;-65
2022/09/28 09:57:03;;;;;;;;;;;17.50;95.70;;;;;;5028619;28;20222;-66
2022/09/28 09:59:34;;;;;;;;;;;17.70;95.30;;;;;;5029771;28;20212;-66
2022/09/28 10:02:10;;;;;;;;;;;17.80;94.80;;;;;;5028762;28;19916;-66
2022/09/28 10:04:39;;;;;;;;;;;17.80;94.70;;;;;;5029131;28;20237;-66
2022/09/28 10:07:05;;;;;;;;;;;17.70;94.80;;;;;;5028954;28;20016;-66
2022/09/28 10:09:40;;;;;;;;;;;17.70;95.00;;;;;;5028971;28;19986;-65
2022/09/28 10:12:10;;;;;;;;;;;17.70;95.20;;;;;;5029241;28;19913;-65
2022/09/28 10:14:39;;;;;;;;;;;17.70;95.10;;;;;;5029215;28;20262;-66
2022/09/28 10:17:10;;;;;;;;;;;17.80;94.90;;;;;;5030593;28;20036;-65
2022/09/28 10:19:36;;;;;;;;;;;17.80;94.80;;;;;;5030430;28;19928;-65
2022/09/28 10:22:02;;;;;;;;;;;17.90;94.60;;;;;;5030180;28;19912;-66
2022/09/28 10:24:37;;;;;;;;;;;18.00;94.40;;;;;;5030313;28;20190;-65
2022/09/28 10:27:07;;;;;;;;;;;18.20;94.00;;;;;;5027882;28;19909;-65
2022/09/28 10:29:38;;;;;;;;;;;18.30;93.60;;;;;;5028403;28;20059;-65
2022/09/28 10:32:21;;;;;;;;;;;18.20;93.40;;;;;;5029871;28;19937;-65
2022/09/28 10:34:47;;;;;;;;;;;18.20;93.50;;;;;;5031893;28;20015;-65
2022/09/28 10:37:14;;;;;;;;;;;18.10;93.60;;;;;;5030760;28;20019;-65
2022/09/28 10:39:42;;;;;;;;;;;18.00;93.80;;;;;;5030197;28;19919;-65
2022/09/28 10:42:16;;;;;;;;;;;18.00;94.20;;;;;;5029400;28;20306;-65
2022/09/28 10:44:57;;;;;;;;;;;17.90;94.10;;;;;;5029794;28;19909;-65
2022/09/28 10:47:26;;;;;;;;;;;17.90;94.20;;;;;;5031893;28;19916;-66
2022/09/28 10:49:53;;;;;;;;;;;17.90;94.30;;;;;;5029391;28;19913;-65
2022/09/28 10:52:37;;;;;;;;;;;17.80;94.40;;;;;;5029387;28;19958;-66
2022/09/28 10:55:23;;;;;;;;;;;17.80;94.60;;;;;;5028337;28;19908;-65
2022/09/28 10:57:49;;;;;;;;;;;17.70;94.70;;;;;;5027723;28;19913;-65
2022/09/28 11:00:29;;;;;;;;;;;17.70;94.90;;;;;;5028490;28;20283;-65
2022/09/28 11:02:54;;;;;;;;;;;17.70;95.10;;;;;;5028236;28;20383;-65
2022/09/28 11:05:21;;;;;;;;;;;17.70;95.00;;;;;;5031564;28;19909;-65
2022/09/28 11:07:47;;;;;;;;;;;17.80;94.90;;;;;;5031050;28;19912;-66
2022/09/28 11:10:31;;;;;;;;;;;17.90;94.70;;;;;;5028990;28;19943;-65
2022/09/28 11:12:57;;;;;;;;;;;17.90;94.50;;;;;;5028499;28;19917;-66
2022/09/28 11:15:25;;;;;;;;;;;17.90;94.50;;;;;;5032135;28;19935;-65
2022/09/28 11:17:51;;;;;;;;;;;17.90;94.50;;;;;;5033730;28;20000;-65
2022/09/28 11:20:26;;;;;;;;;;;17.90;94.70;;;;;;5031713;28;20075;-65
2022/09/28 11:22:54;;;;;;;;;;;17.90;94.60;;;;;;5031257;28;19913;-65
2022/09/28 11:25:23;;;;;;;;;;;18.00;94.50;;;;;;5032159;28;19908;-66
2022/09/28 11:27:52;;;;;;;;;;;18.10;94.20;;;;;;5034774;28;19909;-65
2022/09/28 11:30:22;;;;;;;;;;;18.20;94.00;;;;;;5052402;28;19917;-66
2022/09/28 11:32:48;;;;;;;;;;;18.20;93.90;;;;;;5033735;28;19916;-65
2022/09/28 11:35:20;;;;;;;;;;;18.30;93.80;;;;;;5033273;28;19978;-65
2022/09/28 11:37:55;;;;;;;;;;;18.30;93.90;;;;;;5032343;28;19913;-66
2022/09/28 11:40:30;;;;;;;;;;;18.30;93.80;;;;;;5034072;28;19916;-66
2022/09/28 11:43:03;;;;;;;;;;;18.30;93.80;;;;;;5032087;28;19916;-66
2022/09/28 11:45:38;;;;;;;;;;;18.40;93.60;;;;;;5048210;28;19908;-66
2022/09/28 11:48:04;;;;;;;;;;;18.40;93.30;;;;;;5028179;28;19973;-66
2022/09/28 11:50:30;;;;;;;;;;;18.50;93.10;;;;;;5030250;28;20113;-66
2022/09/28 11:53:03;;;;;;;;;;;18.50;93.00;;;;;;5030456;28;19909;-65
2022/09/28 11:55:33;;;;;;;;;;;18.50;93.30;;;;;;5031656;28;19920;-66
2022/09/28 11:58:04;;;;;;;;;;;18.40;93.30;;;;;;5031498;28;19909;-66
2022/09/28 12:00:32;;;;;;;;;;;18.40;93.60;;;;;;5033588;28;19970;-66
2022/09/28 12:03:10;;;;;;;;;;;18.40;93.70;;;;;;5031493;28;19909;-66
2022/09/28 12:05:39;;;;;;;;;;;18.40;93.60;;;;;;5031704;28;19919;-66
2022/09/28 12:08:14;;;;;;;;;;;18.40;93.60;;;;;;5032916;28;19948;-66
2022/09/28 12:10:51;;;;;;;;;;;18.50;93.60;;;;;;5032983;28;19912;-66
2022/09/28 12:13:22;;;;;;;;;;;18.50;93.50;;;;;;5031294;28;20294;-66
2022/09/28 12:16:03;;;;;;;;;;;18.60;93.40;;;;;;5029235;28;20279;-66
2022/09/28 12:18:29;;;;;;;;;;;18.60;93.30;;;;;;5030620;28;19928;-66
2022/09/28 12:21:06;;;;;;;;;;;18.70;93.10;;;;;;5030342;28;19909;-66
2022/09/28 12:23:34;;;;;;;;;;;18.70;93.00;;;;;;5030396;28;19993;-66
2022/09/28 12:26:21;;;;;;;;;;;18.60;93.00;;;;;;5028784;28;19920;-65
2022/09/28 12:28:55;;;;;;;;;;;18.60;93.10;;;;;;5031409;28;19909;-66
2022/09/28 12:31:30;;;;;;;;;;;18.60;93.20;;;;;;5031751;28;20267;-66
2022/09/28 12:33:58;;;;;;;;;;;18.50;93.30;;;;;;5035516;28;20450;-65
2022/09/28 12:36:40;;;;;;;;;;;18.50;93.50;;;;;;5034557;28;19924;-66
2022/09/28 12:39:15;;;;;;;;;;;18.50;93.60;;;;;;5034337;28;20406;-66
2022/09/28 12:41:53;;;;;;;;;;;18.40;93.70;;;;;;5032442;28;19909;-66
2022/09/28 12:44:42;;;;;;;;;;;18.40;93.80;;;;;;5049731;28;19924;-66
2022/09/28 12:47:29;;;;;;;;;;;18.40;93.80;;;;;;5049640;28;19993;-66
2022/09/28 12:50:10;;;;;;;;;;;18.40;93.90;;;;;;5030520;28;20072;-66
2022/09/28 12:52:51;;;;;;;;;;;18.30;93.90;;;;;;5029514;28;19909;-66
2022/09/28 12:55:31;;;;;;;;;;;18.30;94.00;;;;;;5030303;28;19909;-66
2022/09/28 12:57:58;;;;;;;;;;;18.30;94.00;;;;;;5030299;28;19909;-65
2022/09/28 13:00:29;;;;;;;;;;;18.30;94.10;;;;;;5030914;28;19909;-64
2022/09/28 13:03:06;;;;;;;;;;;18.30;94.10;;;;;;5032344;28;20097;-63
2022/09/28 13:05:57;;;;;;;;;;;18.30;94.10;;;;;;5032883;28;19909;-64
2022/09/28 13:08:25;;;;;;;;;;;18.30;94.10;;;;;;5031395;28;20089;-64
2022/09/28 13:11:00;;;;;;;;;;;18.30;94.00;;;;;;5029965;28;19927;-64
2022/09/28 13:13:45;;;;;;;;;;;18.40;93.90;;;;;;5032748;28;19909;-66
2022/09/28 13:16:16;;;;;;;;;;;18.40;93.80;;;;;;5029753;28;19968;-65
2022/09/28 13:18:41;;;;;;;;;;;18.40;93.80;;;;;;5033265;28;19916;-65
2022/09/28 13:21:16;;;;;;;;;;;18.40;93.70;;;;;;5030972;28;20168;-65
2022/09/28 13:23:42;;;;;;;;;;;18.50;93.60;;;;;;5031035;28;19908;-65
2022/09/28 13:26:14;;;;;;;;;;;18.50;93.60;;;;;;5030831;28;19916;-65
2022/09/28 13:28:41;;;;;;;;;;;18.50;93.50;;;;;;5046398;28;19909;-66
2022/09/28 13:31:14;;;;;;;;;;;18.50;93.40;;;;;;5028833;28;19917;-66
2022/09/28 13:33:42;;;;;;;;;;;18.50;93.30;;;;;;5028601;28;20062;-65
2022/09/28 13:36:25;;;;;;;;;;;18.60;93.20;;;;;;5012923;28;22643;-65
2022/09/28 13:38:51;;;;;;;;;;;18.60;93.10;;;;;;5030424;28;19908;-66
2022/09/28 13:41:20;;;;;;;;;;;18.60;93.10;;;;;;5030092;28;20202;-65
2022/09/28 13:43:49;;;;;;;;;;;18.60;93.10;;;;;;5031371;28;19936;-65
2022/09/28 13:46:33;;;;;;;;;;;18.60;93.10;;;;;;5030799;28;19944;-65
2022/09/28 13:49:19;;;;;;;;;;;18.60;93.10;;;;;;5030688;28;19916;-65
2022/09/28 13:51:55;;;;;;;;;;;18.60;93.10;;;;;;5029250;28;19908;-65
2022/09/28 13:54:24;;;;;;;;;;;18.50;93.10;;;;;;5027330;28;19909;-66
2022/09/28 13:56:53;;;;;;;;;;;18.50;93.20;;;;;;5050678;28;19908;-65
2022/09/28 13:59:18;;;;;;;;;;;18.50;93.20;;;;;;5050420;28;19919;-65
2022/09/28 14:02:10;;;;;;;;;;;18.50;93.20;;;;;;5048541;28;19909;-66
2022/09/28 14:04:55;;;;;;;;;;;18.50;93.20;;;;;;5011027;28;19923;-66
2022/09/28 14:07:23;;;;;;;;;;;18.60;93.20;;;;;;5049752;28;19995;-66
2022/09/28 14:10:07;;;;;;;;;;;18.60;93.10;;;;;;5049173;28;19912;-66
2022/09/28 14:12:33;;;;;;;;;;;18.60;93.10;;;;;;5049345;28;19920;-66
2022/09/28 14:14:59;;;;;;;;;;;18.60;93.10;;;;;;5050059;28;19909;-66
2022/09/28 14:17:27;;;;;;;;;;;18.60;93.10;;;;;;5046972;28;19959;-66
2022/09/28 14:19:53;;;;;;;;;;;18.60;93.20;;;;;;5052886;28;20321;-66
2022/09/28 14:22:46;;;;;;;;;;;18.60;93.30;;;;;;5050510;28;20007;-66
2022/09/28 14:25:25;;;;;;;;;;;18.60;93.40;;;;;;5010022;28;20337;-66
2022/09/28 14:28:00;;;;;;;;;;;18.50;93.50;;;;;;5048679;28;19931;-66
2022/09/28 14:30:47;;;;;;;;;;;18.50;93.60;;;;;;5048272;28;19923;-66
2022/09/28 14:33:29;;;;;;;;;;;18.40;93.90;;;;;;5046888;28;19915;-66
2022/09/28 14:35:57;;;;;;;;;;;18.40;93.80;;;;;;5047201;28;20433;-67
2022/09/28 14:41:26;;;;;;;;;;;18.40;94.00;;;;;;5065061;28;19967;-66
2022/09/28 14:43:57;;;;;;;;;;;18.40;94.10;;;;;;5066420;28;20125;-66
2022/09/28 14:46:28;;;;;;;;;;;18.30;94.10;;;;;;5050089;28;19908;-66
2022/09/28 14:48:56;;;;;;;;;;;18.30;94.20;;;;;;5048018;28;19931;-66